sensor_id;sensor_type;location;lat;lon;timestamp;P1;durP1;ratioP1;P2;durP2;ratioP2
24663;SDS011;12791;50.992;13.788;2023-12-04T00:01:44;17.40;;;10.82;;
24663;SDS011;12791;50.992;13.788;2023-12-04T00:04:11;16.60;;;9.85;;
24663;SDS011;12791;50.992;13.788;2023-12-04T00:06:38;16.92;;;10.48;;
24663;SDS011;12791;50.992;13.788;2023-12-04T00:09:05;16.55;;;11.02;;
24663;SDS011;12791;50.992;13.788;2023-12-04T00:11:34;22.25;;;14.07;;
24663;SDS011;12791;50.992;13.788;2023-12-04T00:14:01;23.00;;;15.07;;
24663;SDS011;12791;50.992;13.788;2023-12-04T00:16:27;25.05;;;15.75;;
24663;SDS011;12791;50.992;13.788;2023-12-04T00:18:55;25.50;;;15.38;;
24663;SDS011;12791;50.992;13.788;2023-12-04T00:21:22;23.10;;;14.60;;
24663;SDS011;12791;50.992;13.788;2023-12-04T00:23:49;20.73;;;13.52;;
24663;SDS011;12791;50.992;13.788;2023-12-04T00:26:15;22.85;;;13.48;;
24663;SDS011;12791;50.992;13.788;2023-12-04T00:28:42;20.85;;;12.43;;
24663;SDS011;12791;50.992;13.788;2023-12-04T00:31:08;20.83;;;12.63;;
24663;SDS011;12791;50.992;13.788;2023-12-04T00:33:36;19.35;;;12.07;;
24663;SDS011;12791;50.992;13.788;2023-12-04T00:36:05;20.20;;;12.82;;
24663;SDS011;12791;50.992;13.788;2023-12-04T00:38:32;18.48;;;12.38;;
24663;SDS011;12791;50.992;13.788;2023-12-04T00:40:58;19.10;;;12.40;;
24663;SDS011;12791;50.992;13.788;2023-12-04T00:43:25;18.85;;;11.98;;
24663;SDS011;12791;50.992;13.788;2023-12-04T00:45:52;20.40;;;11.93;;
24663;SDS011;12791;50.992;13.788;2023-12-04T00:48:18;19.80;;;12.18;;
24663;SDS011;12791;50.992;13.788;2023-12-04T00:50:45;18.60;;;11.40;;
24663;SDS011;12791;50.992;13.788;2023-12-04T00:53:13;17.52;;;10.95;;
24663;SDS011;12791;50.992;13.788;2023-12-04T00:55:40;17.27;;;10.48;;
24663;SDS011;12791;50.992;13.788;2023-12-04T00:58:06;16.95;;;11.23;;
24663;SDS011;12791;50.992;13.788;2023-12-04T01:00:33;17.05;;;10.43;;
24663;SDS011;12791;50.992;13.788;2023-12-04T01:02:59;18.27;;;10.68;;
24663;SDS011;12791;50.992;13.788;2023-12-04T01:05:26;17.20;;;10.27;;
24663;SDS011;12791;50.992;13.788;2023-12-04T01:07:53;15.95;;;9.68;;
24663;SDS011;12791;50.992;13.788;2023-12-04T01:10:21;15.70;;;10.02;;
24663;SDS011;12791;50.992;13.788;2023-12-04T01:12:48;17.08;;;10.52;;
24663;SDS011;12791;50.992;13.788;2023-12-04T01:15:14;13.27;;;8.88;;
24663;SDS011;12791;50.992;13.788;2023-12-04T01:17:41;14.07;;;9.10;;
24663;SDS011;12791;50.992;13.788;2023-12-04T01:20:08;15.32;;;9.25;;
24663;SDS011;12791;50.992;13.788;2023-12-04T01:22:35;14.30;;;8.55;;
24663;SDS011;12791;50.992;13.788;2023-12-04T01:25:02;18.90;;;10.15;;
24663;SDS011;12791;50.992;13.788;2023-12-04T01:27:30;15.25;;;9.23;;
24663;SDS011;12791;50.992;13.788;2023-12-04T01:29:57;15.25;;;9.32;;
24663;SDS011;12791;50.992;13.788;2023-12-04T01:32:23;15.23;;;8.73;;
24663;SDS011;12791;50.992;13.788;2023-12-04T01:34:50;12.23;;;8.30;;
24663;SDS011;12791;50.992;13.788;2023-12-04T01:37:17;14.45;;;8.68;;
24663;SDS011;12791;50.992;13.788;2023-12-04T01:39:43;13.30;;;8.98;;
24663;SDS011;12791;50.992;13.788;2023-12-04T01:42:10;15.45;;;8.40;;
24663;SDS011;12791;50.992;13.788;2023-12-04T01:44:38;13.88;;;8.10;;
24663;SDS011;12791;50.992;13.788;2023-12-04T01:47:05;10.88;;;7.43;;
24663;SDS011;12791;50.992;13.788;2023-12-04T01:49:33;12.45;;;8.30;;
24663;SDS011;12791;50.992;13.788;2023-12-04T01:51:59;12.35;;;8.07;;
24663;SDS011;12791;50.992;13.788;2023-12-04T01:54:27;14.50;;;8.18;;
24663;SDS011;12791;50.992;13.788;2023-12-04T01:56:54;13.23;;;7.78;;
24663;SDS011;12791;50.992;13.788;2023-12-04T01:59:21;12.65;;;7.85;;
24663;SDS011;12791;50.992;13.788;2023-12-04T02:01:49;13.35;;;8.23;;
24663;SDS011;12791;50.992;13.788;2023-12-04T02:04:16;14.18;;;8.70;;
24663;SDS011;12791;50.992;13.788;2023-12-04T02:06:42;14.23;;;8.85;;
24663;SDS011;12791;50.992;13.788;2023-12-04T02:09:09;12.60;;;7.30;;
24663;SDS011;12791;50.992;13.788;2023-12-04T02:11:37;12.30;;;7.90;;
24663;SDS011;12791;50.992;13.788;2023-12-04T02:14:05;15.30;;;8.27;;
24663;SDS011;12791;50.992;13.788;2023-12-04T02:16:32;14.98;;;9.00;;
24663;SDS011;12791;50.992;13.788;2023-12-04T02:19:06;12.25;;;7.03;;
24663;SDS011;12791;50.992;13.788;2023-12-04T02:21:33;13.48;;;7.63;;
24663;SDS011;12791;50.992;13.788;2023-12-04T02:24:01;12.65;;;8.32;;
24663;SDS011;12791;50.992;13.788;2023-12-04T02:26:28;11.98;;;8.25;;
24663;SDS011;12791;50.992;13.788;2023-12-04T02:29:02;13.68;;;7.68;;
24663;SDS011;12791;50.992;13.788;2023-12-04T02:31:34;11.18;;;7.38;;
24663;SDS011;12791;50.992;13.788;2023-12-04T02:34:02;12.27;;;7.13;;
24663;SDS011;12791;50.992;13.788;2023-12-04T02:36:32;12.95;;;7.68;;
24663;SDS011;12791;50.992;13.788;2023-12-04T02:39:02;13.30;;;7.97;;
24663;SDS011;12791;50.992;13.788;2023-12-04T02:41:30;11.13;;;7.43;;
24663;SDS011;12791;50.992;13.788;2023-12-04T02:43:57;14.30;;;8.50;;
24663;SDS011;12791;50.992;13.788;2023-12-04T02:46:23;12.52;;;8.02;;
24663;SDS011;12791;50.992;13.788;2023-12-04T02:48:50;14.95;;;8.55;;
24663;SDS011;12791;50.992;13.788;2023-12-04T02:51:17;12.77;;;8.20;;
24663;SDS011;12791;50.992;13.788;2023-12-04T02:53:43;14.10;;;7.93;;
24663;SDS011;12791;50.992;13.788;2023-12-04T02:56:11;12.50;;;7.75;;
24663;SDS011;12791;50.992;13.788;2023-12-04T02:58:38;12.32;;;7.00;;
24663;SDS011;12791;50.992;13.788;2023-12-04T03:01:05;13.13;;;7.50;;
24663;SDS011;12791;50.992;13.788;2023-12-04T03:03:32;14.82;;;7.97;;
24663;SDS011;12791;50.992;13.788;2023-12-04T03:05:58;15.88;;;8.07;;
24663;SDS011;12791;50.992;13.788;2023-12-04T03:08:25;14.57;;;8.43;;
24663;SDS011;12791;50.992;13.788;2023-12-04T03:10:52;15.52;;;10.18;;
24663;SDS011;12791;50.992;13.788;2023-12-04T03:13:19;19.88;;;10.90;;
24663;SDS011;12791;50.992;13.788;2023-12-04T03:15:46;21.38;;;12.25;;
24663;SDS011;12791;50.992;13.788;2023-12-04T03:18:13;24.70;;;13.90;;
24663;SDS011;12791;50.992;13.788;2023-12-04T03:20:39;22.90;;;13.30;;
24663;SDS011;12791;50.992;13.788;2023-12-04T03:23:06;26.38;;;14.45;;
24663;SDS011;12791;50.992;13.788;2023-12-04T03:25:33;24.70;;;14.07;;
24663;SDS011;12791;50.992;13.788;2023-12-04T03:27:59;26.30;;;14.23;;
24663;SDS011;12791;50.992;13.788;2023-12-04T03:30:27;23.77;;;14.88;;
24663;SDS011;12791;50.992;13.788;2023-12-04T03:32:54;26.05;;;14.45;;
24663;SDS011;12791;50.992;13.788;2023-12-04T03:35:20;27.73;;;15.32;;
24663;SDS011;12791;50.992;13.788;2023-12-04T03:37:47;29.15;;;16.48;;
24663;SDS011;12791;50.992;13.788;2023-12-04T03:40:14;29.38;;;16.70;;
24663;SDS011;12791;50.992;13.788;2023-12-04T03:42:41;29.20;;;16.60;;
24663;SDS011;12791;50.992;13.788;2023-12-04T03:45:08;27.75;;;16.20;;
24663;SDS011;12791;50.992;13.788;2023-12-04T03:47:37;25.67;;;14.85;;
24663;SDS011;12791;50.992;13.788;2023-12-04T03:50:04;29.92;;;16.42;;
24663;SDS011;12791;50.992;13.788;2023-12-04T03:52:31;27.77;;;15.15;;
24663;SDS011;12791;50.992;13.788;2023-12-04T03:54:57;27.10;;;15.40;;
24663;SDS011;12791;50.992;13.788;2023-12-04T03:57:24;32.40;;;17.63;;
24663;SDS011;12791;50.992;13.788;2023-12-04T03:59:51;27.42;;;15.57;;
24663;SDS011;12791;50.992;13.788;2023-12-04T04:02:17;28.60;;;16.02;;
24663;SDS011;12791;50.992;13.788;2023-12-04T04:04:45;30.83;;;17.67;;
24663;SDS011;12791;50.992;13.788;2023-12-04T04:07:12;30.02;;;16.33;;
24663;SDS011;12791;50.992;13.788;2023-12-04T04:09:40;32.60;;;18.30;;
24663;SDS011;12791;50.992;13.788;2023-12-04T04:12:06;31.65;;;17.50;;
24663;SDS011;12791;50.992;13.788;2023-12-04T04:14:33;30.90;;;17.23;;
24663;SDS011;12791;50.992;13.788;2023-12-04T04:17:00;32.88;;;17.55;;
24663;SDS011;12791;50.992;13.788;2023-12-04T04:19:26;34.35;;;17.70;;
24663;SDS011;12791;50.992;13.788;2023-12-04T04:21:54;36.50;;;18.40;;
24663;SDS011;12791;50.992;13.788;2023-12-04T04:24:21;31.42;;;17.70;;
24663;SDS011;12791;50.992;13.788;2023-12-04T04:26:47;32.63;;;17.63;;
24663;SDS011;12791;50.992;13.788;2023-12-04T04:29:14;35.70;;;19.98;;
24663;SDS011;12791;50.992;13.788;2023-12-04T04:31:41;34.88;;;19.40;;
24663;SDS011;12791;50.992;13.788;2023-12-04T04:34:07;34.83;;;19.27;;
24663;SDS011;12791;50.992;13.788;2023-12-04T04:36:34;39.67;;;20.50;;
24663;SDS011;12791;50.992;13.788;2023-12-04T04:39:03;34.55;;;19.30;;
24663;SDS011;12791;50.992;13.788;2023-12-04T04:41:30;35.55;;;19.60;;
24663;SDS011;12791;50.992;13.788;2023-12-04T04:43:56;38.10;;;20.38;;
24663;SDS011;12791;50.992;13.788;2023-12-04T04:46:23;36.60;;;19.90;;
24663;SDS011;12791;50.992;13.788;2023-12-04T04:48:51;36.22;;;19.35;;
24663;SDS011;12791;50.992;13.788;2023-12-04T04:51:18;35.35;;;18.33;;
24663;SDS011;12791;50.992;13.788;2023-12-04T04:53:44;38.05;;;19.98;;
24663;SDS011;12791;50.992;13.788;2023-12-04T04:56:12;33.72;;;18.98;;
24663;SDS011;12791;50.992;13.788;2023-12-04T04:58:39;37.05;;;19.88;;
24663;SDS011;12791;50.992;13.788;2023-12-04T05:01:06;35.00;;;19.05;;
24663;SDS011;12791;50.992;13.788;2023-12-04T05:03:34;35.08;;;19.38;;
24663;SDS011;12791;50.992;13.788;2023-12-04T05:06:00;34.15;;;19.38;;
24663;SDS011;12791;50.992;13.788;2023-12-04T05:08:27;36.95;;;20.15;;
24663;SDS011;12791;50.992;13.788;2023-12-04T05:10:54;39.28;;;19.83;;
24663;SDS011;12791;50.992;13.788;2023-12-04T05:13:22;36.42;;;19.55;;
24663;SDS011;12791;50.992;13.788;2023-12-04T05:15:48;37.83;;;20.17;;
24663;SDS011;12791;50.992;13.788;2023-12-04T05:18:15;37.28;;;19.13;;
24663;SDS011;12791;50.992;13.788;2023-12-04T05:20:41;35.67;;;19.05;;
24663;SDS011;12791;50.992;13.788;2023-12-04T05:23:08;39.45;;;20.25;;
24663;SDS011;12791;50.992;13.788;2023-12-04T05:25:35;32.67;;;18.17;;
24663;SDS011;12791;50.992;13.788;2023-12-04T05:28:01;33.67;;;18.85;;
24663;SDS011;12791;50.992;13.788;2023-12-04T05:30:30;36.92;;;19.30;;
24663;SDS011;12791;50.992;13.788;2023-12-04T05:32:57;34.60;;;18.92;;
24663;SDS011;12791;50.992;13.788;2023-12-04T05:35:23;37.15;;;20.35;;
24663;SDS011;12791;50.992;13.788;2023-12-04T05:37:50;36.60;;;19.30;;
24663;SDS011;12791;50.992;13.788;2023-12-04T05:40:17;39.80;;;20.52;;
24663;SDS011;12791;50.992;13.788;2023-12-04T05:42:43;38.67;;;20.35;;
24663;SDS011;12791;50.992;13.788;2023-12-04T05:45:10;35.95;;;19.67;;
24663;SDS011;12791;50.992;13.788;2023-12-04T05:47:38;35.58;;;19.23;;
24663;SDS011;12791;50.992;13.788;2023-12-04T05:50:05;37.65;;;20.10;;
24663;SDS011;12791;50.992;13.788;2023-12-04T05:52:32;38.83;;;20.80;;
24663;SDS011;12791;50.992;13.788;2023-12-04T05:54:59;38.65;;;20.10;;
24663;SDS011;12791;50.992;13.788;2023-12-04T05:57:26;36.92;;;20.38;;
24663;SDS011;12791;50.992;13.788;2023-12-04T05:59:52;37.03;;;19.85;;
24663;SDS011;12791;50.992;13.788;2023-12-04T06:02:19;38.90;;;19.80;;
24663;SDS011;12791;50.992;13.788;2023-12-04T06:04:47;39.08;;;21.15;;
24663;SDS011;12791;50.992;13.788;2023-12-04T06:07:13;37.80;;;20.60;;
24663;SDS011;12791;50.992;13.788;2023-12-04T06:09:41;33.45;;;19.13;;
24663;SDS011;12791;50.992;13.788;2023-12-04T06:12:07;34.55;;;18.55;;
24663;SDS011;12791;50.992;13.788;2023-12-04T06:14:34;35.08;;;18.80;;
24663;SDS011;12791;50.992;13.788;2023-12-04T06:17:01;31.65;;;18.13;;
24663;SDS011;12791;50.992;13.788;2023-12-04T06:19:28;35.28;;;18.80;;
24663;SDS011;12791;50.992;13.788;2023-12-04T06:21:56;32.35;;;18.05;;
24663;SDS011;12791;50.992;13.788;2023-12-04T06:24:24;34.83;;;18.65;;
24663;SDS011;12791;50.992;13.788;2023-12-04T06:26:51;30.90;;;17.08;;
24663;SDS011;12791;50.992;13.788;2023-12-04T06:29:19;33.45;;;17.30;;
24663;SDS011;12791;50.992;13.788;2023-12-04T06:31:46;32.83;;;17.95;;
24663;SDS011;12791;50.992;13.788;2023-12-04T06:34:13;32.35;;;17.88;;
24663;SDS011;12791;50.992;13.788;2023-12-04T06:36:40;35.30;;;18.60;;
24663;SDS011;12791;50.992;13.788;2023-12-04T06:39:09;34.00;;;18.55;;
24663;SDS011;12791;50.992;13.788;2023-12-04T06:41:37;31.98;;;17.67;;
24663;SDS011;12791;50.992;13.788;2023-12-04T06:44:05;30.30;;;18.08;;
24663;SDS011;12791;50.992;13.788;2023-12-04T06:46:33;32.55;;;17.95;;
24663;SDS011;12791;50.992;13.788;2023-12-04T06:49:02;33.63;;;18.45;;
24663;SDS011;12791;50.992;13.788;2023-12-04T06:51:31;35.33;;;20.23;;
24663;SDS011;12791;50.992;13.788;2023-12-04T06:53:58;34.53;;;18.48;;
24663;SDS011;12791;50.992;13.788;2023-12-04T06:56:26;34.22;;;19.20;;
24663;SDS011;12791;50.992;13.788;2023-12-04T06:58:52;35.88;;;19.30;;
24663;SDS011;12791;50.992;13.788;2023-12-04T07:01:19;34.35;;;18.70;;
24663;SDS011;12791;50.992;13.788;2023-12-04T07:03:46;33.78;;;18.40;;
24663;SDS011;12791;50.992;13.788;2023-12-04T07:06:13;36.20;;;18.75;;
24663;SDS011;12791;50.992;13.788;2023-12-04T07:08:40;30.95;;;17.70;;
24663;SDS011;12791;50.992;13.788;2023-12-04T07:11:06;28.20;;;16.95;;
24663;SDS011;12791;50.992;13.788;2023-12-04T07:13:34;30.92;;;17.23;;
24663;SDS011;12791;50.992;13.788;2023-12-04T07:16:01;31.50;;;17.02;;
24663;SDS011;12791;50.992;13.788;2023-12-04T07:18:29;29.65;;;17.55;;
24663;SDS011;12791;50.992;13.788;2023-12-04T07:20:55;31.80;;;18.65;;
24663;SDS011;12791;50.992;13.788;2023-12-04T07:23:22;28.70;;;16.52;;
24663;SDS011;12791;50.992;13.788;2023-12-04T07:25:49;28.40;;;16.98;;
24663;SDS011;12791;50.992;13.788;2023-12-04T07:28:16;29.17;;;15.85;;
24663;SDS011;12791;50.992;13.788;2023-12-04T07:30:44;30.67;;;17.02;;
24663;SDS011;12791;50.992;13.788;2023-12-04T07:33:11;32.60;;;18.17;;
24663;SDS011;12791;50.992;13.788;2023-12-04T07:35:38;31.83;;;18.83;;
24663;SDS011;12791;50.992;13.788;2023-12-04T07:38:05;31.08;;;18.23;;
24663;SDS011;12791;50.992;13.788;2023-12-04T07:40:31;32.83;;;18.88;;
24663;SDS011;12791;50.992;13.788;2023-12-04T07:42:58;32.63;;;19.50;;
24663;SDS011;12791;50.992;13.788;2023-12-04T07:45:25;27.55;;;16.02;;
24663;SDS011;12791;50.992;13.788;2023-12-04T07:47:53;25.90;;;15.60;;
24663;SDS011;12791;50.992;13.788;2023-12-04T07:50:20;23.65;;;14.77;;
24663;SDS011;12791;50.992;13.788;2023-12-04T07:52:47;20.45;;;12.73;;
24663;SDS011;12791;50.992;13.788;2023-12-04T07:55:14;21.73;;;12.30;;
24663;SDS011;12791;50.992;13.788;2023-12-04T07:57:40;17.98;;;11.07;;
24663;SDS011;12791;50.992;13.788;2023-12-04T08:00:08;18.80;;;12.18;;
24663;SDS011;12791;50.992;13.788;2023-12-04T08:02:35;19.27;;;11.98;;
24663;SDS011;12791;50.992;13.788;2023-12-04T08:05:03;18.95;;;11.50;;
24663;SDS011;12791;50.992;13.788;2023-12-04T08:07:30;21.58;;;12.80;;
24663;SDS011;12791;50.992;13.788;2023-12-04T08:09:57;23.90;;;14.15;;
24663;SDS011;12791;50.992;13.788;2023-12-04T08:12:23;24.45;;;13.80;;
24663;SDS011;12791;50.992;13.788;2023-12-04T08:14:50;22.95;;;13.45;;
24663;SDS011;12791;50.992;13.788;2023-12-04T08:17:16;23.00;;;13.55;;
24663;SDS011;12791;50.992;13.788;2023-12-04T08:19:43;24.33;;;14.52;;
24663;SDS011;12791;50.992;13.788;2023-12-04T08:22:11;20.83;;;11.80;;
24663;SDS011;12791;50.992;13.788;2023-12-04T08:24:38;22.00;;;12.55;;
24663;SDS011;12791;50.992;13.788;2023-12-04T08:27:05;17.23;;;11.35;;
24663;SDS011;12791;50.992;13.788;2023-12-04T08:29:33;18.38;;;11.38;;
24663;SDS011;12791;50.992;13.788;2023-12-04T08:31:59;17.05;;;10.93;;
24663;SDS011;12791;50.992;13.788;2023-12-04T08:34:26;17.77;;;11.52;;
24663;SDS011;12791;50.992;13.788;2023-12-04T08:36:52;19.27;;;12.05;;
24663;SDS011;12791;50.992;13.788;2023-12-04T08:39:21;18.17;;;10.80;;
24663;SDS011;12791;50.992;13.788;2023-12-04T08:41:48;21.35;;;12.18;;
24663;SDS011;12791;50.992;13.788;2023-12-04T08:44:15;16.30;;;10.45;;
24663;SDS011;12791;50.992;13.788;2023-12-04T08:46:41;19.77;;;12.10;;
24663;SDS011;12791;50.992;13.788;2023-12-04T08:49:08;21.65;;;11.98;;
24663;SDS011;12791;50.992;13.788;2023-12-04T08:51:35;19.17;;;12.30;;
24663;SDS011;12791;50.992;13.788;2023-12-04T08:54:01;21.40;;;12.90;;
24663;SDS011;12791;50.992;13.788;2023-12-04T08:56:30;21.67;;;12.90;;
24663;SDS011;12791;50.992;13.788;2023-12-04T08:58:56;19.33;;;12.43;;
24663;SDS011;12791;50.992;13.788;2023-12-04T09:01:23;19.55;;;12.57;;
24663;SDS011;12791;50.992;13.788;2023-12-04T09:03:51;20.50;;;12.25;;
24663;SDS011;12791;50.992;13.788;2023-12-04T09:06:18;20.63;;;12.65;;
24663;SDS011;12791;50.992;13.788;2023-12-04T09:08:45;17.73;;;11.55;;
24663;SDS011;12791;50.992;13.788;2023-12-04T09:11:11;21.08;;;12.60;;
24663;SDS011;12791;50.992;13.788;2023-12-04T09:13:40;19.48;;;12.40;;
24663;SDS011;12791;50.992;13.788;2023-12-04T09:16:07;19.10;;;12.55;;
24663;SDS011;12791;50.992;13.788;2023-12-04T09:18:34;18.85;;;12.27;;
24663;SDS011;12791;50.992;13.788;2023-12-04T09:21:00;19.60;;;12.65;;
24663;SDS011;12791;50.992;13.788;2023-12-04T09:23:27;23.15;;;13.40;;
24663;SDS011;12791;50.992;13.788;2023-12-04T09:25:55;19.05;;;12.27;;
24663;SDS011;12791;50.992;13.788;2023-12-04T09:28:22;18.95;;;12.57;;
24663;SDS011;12791;50.992;13.788;2023-12-04T09:30:50;18.60;;;12.15;;
24663;SDS011;12791;50.992;13.788;2023-12-04T09:33:16;19.35;;;12.48;;
24663;SDS011;12791;50.992;13.788;2023-12-04T09:35:43;20.95;;;13.00;;
24663;SDS011;12791;50.992;13.788;2023-12-04T09:38:10;19.48;;;11.93;;
24663;SDS011;12791;50.992;13.788;2023-12-04T09:40:36;20.67;;;11.27;;
24663;SDS011;12791;50.992;13.788;2023-12-04T09:43:03;21.23;;;12.35;;
24663;SDS011;12791;50.992;13.788;2023-12-04T09:45:32;21.38;;;12.43;;
24663;SDS011;12791;50.992;13.788;2023-12-04T09:48:00;21.17;;;12.95;;
24663;SDS011;12791;50.992;13.788;2023-12-04T09:50:27;18.77;;;12.25;;
24663;SDS011;12791;50.992;13.788;2023-12-04T09:52:54;18.42;;;11.45;;
24663;SDS011;12791;50.992;13.788;2023-12-04T09:55:25;19.42;;;11.48;;
24663;SDS011;12791;50.992;13.788;2023-12-04T09:57:52;18.83;;;11.82;;
24663;SDS011;12791;50.992;13.788;2023-12-04T10:00:20;20.17;;;12.20;;
24663;SDS011;12791;50.992;13.788;2023-12-04T10:02:47;20.02;;;12.85;;
24663;SDS011;12791;50.992;13.788;2023-12-04T10:05:15;20.38;;;12.00;;
24663;SDS011;12791;50.992;13.788;2023-12-04T10:07:42;19.35;;;13.18;;
24663;SDS011;12791;50.992;13.788;2023-12-04T10:10:09;18.85;;;12.88;;
24663;SDS011;12791;50.992;13.788;2023-12-04T10:12:36;22.02;;;13.40;;
24663;SDS011;12791;50.992;13.788;2023-12-04T10:15:03;16.40;;;11.25;;
24663;SDS011;12791;50.992;13.788;2023-12-04T10:17:34;19.92;;;12.57;;
24663;SDS011;12791;50.992;13.788;2023-12-04T10:20:05;20.10;;;12.25;;
24663;SDS011;12791;50.992;13.788;2023-12-04T10:22:53;20.05;;;13.23;;
24663;SDS011;12791;50.992;13.788;2023-12-04T10:25:21;20.20;;;12.45;;
24663;SDS011;12791;50.992;13.788;2023-12-04T10:27:49;19.88;;;12.25;;
24663;SDS011;12791;50.992;13.788;2023-12-04T10:30:22;24.17;;;13.93;;
24663;SDS011;12791;50.992;13.788;2023-12-04T10:32:54;21.13;;;13.25;;
24663;SDS011;12791;50.992;13.788;2023-12-04T10:35:25;23.02;;;13.95;;
24663;SDS011;12791;50.992;13.788;2023-12-04T10:37:54;21.10;;;13.73;;
24663;SDS011;12791;50.992;13.788;2023-12-04T10:40:23;26.23;;;15.23;;
24663;SDS011;12791;50.992;13.788;2023-12-04T10:42:50;22.17;;;13.82;;
24663;SDS011;12791;50.992;13.788;2023-12-04T10:45:17;20.48;;;13.43;;
24663;SDS011;12791;50.992;13.788;2023-12-04T10:47:47;21.58;;;14.25;;
24663;SDS011;12791;50.992;13.788;2023-12-04T10:50:15;20.15;;;13.05;;
24663;SDS011;12791;50.992;13.788;2023-12-04T10:52:42;22.42;;;13.57;;
24663;SDS011;12791;50.992;13.788;2023-12-04T10:55:11;20.42;;;12.68;;
24663;SDS011;12791;50.992;13.788;2023-12-04T10:57:39;20.88;;;12.90;;
24663;SDS011;12791;50.992;13.788;2023-12-04T11:00:08;22.40;;;13.57;;
24663;SDS011;12791;50.992;13.788;2023-12-04T11:02:37;20.73;;;13.68;;
24663;SDS011;12791;50.992;13.788;2023-12-04T11:05:12;21.90;;;13.50;;
24663;SDS011;12791;50.992;13.788;2023-12-04T11:07:43;19.45;;;12.27;;
24663;SDS011;12791;50.992;13.788;2023-12-04T11:10:15;19.65;;;12.43;;
24663;SDS011;12791;50.992;13.788;2023-12-04T11:12:44;21.27;;;13.48;;
24663;SDS011;12791;50.992;13.788;2023-12-04T11:15:14;19.00;;;12.85;;
24663;SDS011;12791;50.992;13.788;2023-12-04T11:17:44;24.25;;;14.20;;
24663;SDS011;12791;50.992;13.788;2023-12-04T11:20:16;22.67;;;13.80;;
24663;SDS011;12791;50.992;13.788;2023-12-04T11:22:45;23.48;;;13.70;;
24663;SDS011;12791;50.992;13.788;2023-12-04T11:25:14;22.38;;;13.60;;
24663;SDS011;12791;50.992;13.788;2023-12-04T11:27:41;23.83;;;14.75;;
24663;SDS011;12791;50.992;13.788;2023-12-04T11:30:09;21.10;;;13.48;;
24663;SDS011;12791;50.992;13.788;2023-12-04T11:32:43;20.10;;;12.82;;
24663;SDS011;12791;50.992;13.788;2023-12-04T11:35:12;23.63;;;13.63;;
24663;SDS011;12791;50.992;13.788;2023-12-04T11:37:40;19.27;;;13.13;;
24663;SDS011;12791;50.992;13.788;2023-12-04T11:40:09;20.92;;;13.27;;
24663;SDS011;12791;50.992;13.788;2023-12-04T11:42:39;17.73;;;11.68;;
24663;SDS011;12791;50.992;13.788;2023-12-04T11:45:06;18.00;;;11.98;;
24663;SDS011;12791;50.992;13.788;2023-12-04T11:47:48;22.60;;;12.88;;
24663;SDS011;12791;50.992;13.788;2023-12-04T11:50:15;20.30;;;12.15;;
24663;SDS011;12791;50.992;13.788;2023-12-04T11:52:42;19.05;;;12.25;;
24663;SDS011;12791;50.992;13.788;2023-12-04T11:55:09;17.20;;;11.38;;
24663;SDS011;12791;50.992;13.788;2023-12-04T11:57:36;19.88;;;12.13;;
24663;SDS011;12791;50.992;13.788;2023-12-04T12:00:12;20.67;;;12.10;;
24663;SDS011;12791;50.992;13.788;2023-12-04T12:02:46;18.95;;;11.48;;
24663;SDS011;12791;50.992;13.788;2023-12-04T12:05:15;17.60;;;11.35;;
24663;SDS011;12791;50.992;13.788;2023-12-04T12:07:42;20.02;;;11.50;;
24663;SDS011;12791;50.992;13.788;2023-12-04T12:10:09;18.17;;;12.25;;
24663;SDS011;12791;50.992;13.788;2023-12-04T12:12:36;18.40;;;11.70;;
24663;SDS011;12791;50.992;13.788;2023-12-04T12:15:03;18.27;;;10.95;;
24663;SDS011;12791;50.992;13.788;2023-12-04T12:17:31;18.85;;;11.77;;
24663;SDS011;12791;50.992;13.788;2023-12-04T12:19:58;19.95;;;12.25;;
24663;SDS011;12791;50.992;13.788;2023-12-04T12:22:25;16.98;;;11.45;;
24663;SDS011;12791;50.992;13.788;2023-12-04T12:24:51;20.80;;;12.43;;
24663;SDS011;12791;50.992;13.788;2023-12-04T12:27:18;18.77;;;11.63;;
24663;SDS011;12791;50.992;13.788;2023-12-04T12:29:45;20.27;;;12.70;;
24663;SDS011;12791;50.992;13.788;2023-12-04T12:32:12;18.75;;;11.55;;
24663;SDS011;12791;50.992;13.788;2023-12-04T12:34:39;19.98;;;12.30;;
24663;SDS011;12791;50.992;13.788;2023-12-04T12:37:07;17.65;;;11.88;;
24663;SDS011;12791;50.992;13.788;2023-12-04T12:39:34;19.13;;;12.30;;
24663;SDS011;12791;50.992;13.788;2023-12-04T12:42:01;19.25;;;12.00;;
24663;SDS011;12791;50.992;13.788;2023-12-04T12:44:36;18.20;;;12.07;;
24663;SDS011;12791;50.992;13.788;2023-12-04T12:47:04;21.60;;;12.48;;
24663;SDS011;12791;50.992;13.788;2023-12-04T12:49:32;21.25;;;12.13;;
24663;SDS011;12791;50.992;13.788;2023-12-04T12:52:02;19.63;;;12.55;;
24663;SDS011;12791;50.992;13.788;2023-12-04T12:54:31;19.30;;;11.82;;
24663;SDS011;12791;50.992;13.788;2023-12-04T12:56:59;20.05;;;12.65;;
24663;SDS011;12791;50.992;13.788;2023-12-04T12:59:27;22.25;;;13.15;;
24663;SDS011;12791;50.992;13.788;2023-12-04T13:01:55;19.30;;;12.77;;
24663;SDS011;12791;50.992;13.788;2023-12-04T13:04:25;20.45;;;13.20;;
24663;SDS011;12791;50.992;13.788;2023-12-04T13:06:51;21.88;;;13.38;;
24663;SDS011;12791;50.992;13.788;2023-12-04T13:09:20;21.20;;;13.20;;
24663;SDS011;12791;50.992;13.788;2023-12-04T13:11:47;22.35;;;13.30;;
24663;SDS011;12791;50.992;13.788;2023-12-04T13:14:14;21.42;;;13.80;;
24663;SDS011;12791;50.992;13.788;2023-12-04T13:16:40;21.70;;;13.43;;
24663;SDS011;12791;50.992;13.788;2023-12-04T13:19:07;24.10;;;15.23;;
24663;SDS011;12791;50.992;13.788;2023-12-04T13:21:34;20.77;;;13.68;;
24663;SDS011;12791;50.992;13.788;2023-12-04T13:24:00;22.67;;;13.20;;
24663;SDS011;12791;50.992;13.788;2023-12-04T13:26:33;20.92;;;14.07;;
24663;SDS011;12791;50.992;13.788;2023-12-04T13:28:59;22.65;;;14.15;;
24663;SDS011;12791;50.992;13.788;2023-12-04T13:31:26;21.00;;;13.43;;
24663;SDS011;12791;50.992;13.788;2023-12-04T13:33:53;24.55;;;14.60;;
24663;SDS011;12791;50.992;13.788;2023-12-04T13:36:20;22.55;;;13.32;;
24663;SDS011;12791;50.992;13.788;2023-12-04T13:38:46;22.05;;;14.63;;
24663;SDS011;12791;50.992;13.788;2023-12-04T13:41:13;22.20;;;14.07;;
24663;SDS011;12791;50.992;13.788;2023-12-04T13:44:01;24.75;;;14.45;;
24663;SDS011;12791;50.992;13.788;2023-12-04T13:46:28;21.63;;;13.50;;
24663;SDS011;12791;50.992;13.788;2023-12-04T13:48:56;21.67;;;13.77;;
24663;SDS011;12791;50.992;13.788;2023-12-04T13:51:23;21.13;;;12.43;;
24663;SDS011;12791;50.992;13.788;2023-12-04T13:53:50;22.15;;;13.30;;
24663;SDS011;12791;50.992;13.788;2023-12-04T13:56:21;20.15;;;12.70;;
24663;SDS011;12791;50.992;13.788;2023-12-04T13:59:08;20.65;;;13.00;;
24663;SDS011;12791;50.992;13.788;2023-12-04T14:01:43;22.75;;;13.50;;
24663;SDS011;12791;50.992;13.788;2023-12-04T14:04:10;24.17;;;15.02;;
24663;SDS011;12791;50.992;13.788;2023-12-04T14:06:37;23.25;;;14.05;;
24663;SDS011;12791;50.992;13.788;2023-12-04T14:09:03;23.38;;;15.15;;
24663;SDS011;12791;50.992;13.788;2023-12-04T14:11:35;23.42;;;14.27;;
24663;SDS011;12791;50.992;13.788;2023-12-04T14:14:02;22.52;;;13.93;;